sensor_id;sensor_type;location;lat;lon;timestamp;P1;durP1;ratioP1;P2;durP2;ratioP2
34204;SDS011;20471;49.680;20.074;2024-03-08T00:01:54;41.50;;;28.00;;
34204;SDS011;20471;49.680;20.074;2024-03-08T00:04:22;46.50;;;29.10;;
34204;SDS011;20471;49.680;20.074;2024-03-08T00:06:49;43.40;;;29.20;;
34204;SDS011;20471;49.680;20.074;2024-03-08T00:09:17;43.30;;;28.70;;
34204;SDS011;20471;49.680;20.074;2024-03-08T00:11:45;46.10;;;28.30;;
34204;SDS011;20471;49.680;20.074;2024-03-08T00:14:13;40.90;;;28.00;;
34204;SDS011;20471;49.680;20.074;2024-03-08T00:16:41;40.10;;;25.50;;
34204;SDS011;20471;49.680;20.074;2024-03-08T00:19:10;39.80;;;26.50;;
34204;SDS011;20471;49.680;20.074;2024-03-08T00:21:38;46.10;;;30.20;;
34204;SDS011;20471;49.680;20.074;2024-03-08T00:24:06;42.40;;;28.00;;
34204;SDS011;20471;49.680;20.074;2024-03-08T00:26:33;38.20;;;26.80;;
34204;SDS011;20471;49.680;20.074;2024-03-08T01:35:25;39.60;;;26.00;;
34204;SDS011;20471;49.680;20.074;2024-03-08T01:37:53;34.90;;;25.10;;
34204;SDS011;20471;49.680;20.074;2024-03-08T01:40:21;38.90;;;25.00;;
34204;SDS011;20471;49.680;20.074;2024-03-08T01:42:49;38.30;;;25.20;;
34204;SDS011;20471;49.680;20.074;2024-03-08T01:45:17;38.30;;;26.60;;
34204;SDS011;20471;49.680;20.074;2024-03-08T01:47:45;38.00;;;25.60;;
34204;SDS011;20471;49.680;20.074;2024-03-08T01:50:14;37.00;;;24.50;;
34204;SDS011;20471;49.680;20.074;2024-03-08T01:52:43;41.00;;;26.40;;
34204;SDS011;20471;49.680;20.074;2024-03-08T01:55:11;32.30;;;23.10;;
34204;SDS011;20471;49.680;20.074;2024-03-08T01:57:40;35.30;;;23.40;;
34204;SDS011;20471;49.680;20.074;2024-03-08T02:00:09;34.50;;;23.10;;
34204;SDS011;20471;49.680;20.074;2024-03-08T02:02:37;36.80;;;24.00;;
34204;SDS011;20471;49.680;20.074;2024-03-08T02:05:09;37.70;;;25.30;;
34204;SDS011;20471;49.680;20.074;2024-03-08T02:07:37;33.80;;;23.20;;
34204;SDS011;20471;49.680;20.074;2024-03-08T02:10:05;38.90;;;25.20;;
34204;SDS011;20471;49.680;20.074;2024-03-08T02:12:33;36.20;;;24.70;;
34204;SDS011;20471;49.680;20.074;2024-03-08T02:15:01;40.60;;;24.30;;
34204;SDS011;20471;49.680;20.074;2024-03-08T02:17:28;35.90;;;24.30;;
34204;SDS011;20471;49.680;20.074;2024-03-08T02:19:56;34.30;;;23.80;;
34204;SDS011;20471;49.680;20.074;2024-03-08T02:22:25;36.40;;;23.60;;
34204;SDS011;20471;49.680;20.074;2024-03-08T02:24:52;38.20;;;25.80;;
34204;SDS011;20471;49.680;20.074;2024-03-08T02:27:24;34.90;;;23.70;;
34204;SDS011;20471;49.680;20.074;2024-03-08T02:29:55;33.50;;;23.50;;
34204;SDS011;20471;49.680;20.074;2024-03-08T02:32:24;42.60;;;24.90;;
34204;SDS011;20471;49.680;20.074;2024-03-08T02:34:55;37.30;;;25.00;;
34204;SDS011;20471;49.680;20.074;2024-03-08T02:37:26;35.70;;;25.00;;
34204;SDS011;20471;49.680;20.074;2024-03-08T02:39:54;34.70;;;23.80;;
34204;SDS011;20471;49.680;20.074;2024-03-08T02:42:22;36.90;;;24.90;;
34204;SDS011;20471;49.680;20.074;2024-03-08T02:44:50;37.20;;;23.80;;
34204;SDS011;20471;49.680;20.074;2024-03-08T02:47:18;32.30;;;23.00;;
34204;SDS011;20471;49.680;20.074;2024-03-08T02:49:46;35.20;;;23.90;;
34204;SDS011;20471;49.680;20.074;2024-03-08T02:52:14;34.20;;;22.50;;
34204;SDS011;20471;49.680;20.074;2024-03-08T02:54:42;37.70;;;23.40;;
34204;SDS011;20471;49.680;20.074;2024-03-08T02:57:11;36.30;;;24.90;;
34204;SDS011;20471;49.680;20.074;2024-03-08T02:59:41;38.10;;;24.00;;
34204;SDS011;20471;49.680;20.074;2024-03-08T03:02:08;38.60;;;24.90;;
34204;SDS011;20471;49.680;20.074;2024-03-08T03:04:39;38.40;;;24.70;;
34204;SDS011;20471;49.680;20.074;2024-03-08T03:07:07;35.00;;;24.10;;
34204;SDS011;20471;49.680;20.074;2024-03-08T03:09:35;37.10;;;24.60;;
34204;SDS011;20471;49.680;20.074;2024-03-08T03:12:02;34.80;;;22.30;;
34204;SDS011;20471;49.680;20.074;2024-03-08T03:14:30;35.10;;;23.80;;
34204;SDS011;20471;49.680;20.074;2024-03-08T03:16:58;37.30;;;24.10;;
34204;SDS011;20471;49.680;20.074;2024-03-08T03:19:26;35.90;;;24.40;;
34204;SDS011;20471;49.680;20.074;2024-03-08T03:21:54;38.40;;;23.40;;
34204;SDS011;20471;49.680;20.074;2024-03-08T03:24:21;34.80;;;24.10;;
34204;SDS011;20471;49.680;20.074;2024-03-08T03:26:49;35.90;;;25.20;;
34204;SDS011;20471;49.680;20.074;2024-03-08T03:29:18;35.70;;;24.20;;
34204;SDS011;20471;49.680;20.074;2024-03-08T03:31:46;38.10;;;24.30;;
34204;SDS011;20471;49.680;20.074;2024-03-08T03:34:14;35.90;;;26.10;;
34204;SDS011;20471;49.680;20.074;2024-03-08T03:36:41;35.80;;;25.00;;
34204;SDS011;20471;49.680;20.074;2024-03-08T03:39:11;37.70;;;24.90;;
34204;SDS011;20471;49.680;20.074;2024-03-08T03:41:42;41.10;;;25.60;;
34204;SDS011;20471;49.680;20.074;2024-03-08T03:44:12;42.70;;;26.40;;
34204;SDS011;20471;49.680;20.074;2024-03-08T03:46:42;38.20;;;26.00;;
34204;SDS011;20471;49.680;20.074;2024-03-08T03:49:11;44.90;;;27.80;;
34204;SDS011;20471;49.680;20.074;2024-03-08T03:51:39;53.00;;;40.10;;
34204;SDS011;20471;49.680;20.074;2024-03-08T03:54:07;41.60;;;27.70;;
34204;SDS011;20471;49.680;20.074;2024-03-08T03:56:34;44.30;;;28.60;;
34204;SDS011;20471;49.680;20.074;2024-03-08T03:59:02;45.70;;;29.70;;
34204;SDS011;20471;49.680;20.074;2024-03-08T04:01:30;40.20;;;27.40;;
34204;SDS011;20471;49.680;20.074;2024-03-08T04:03:58;50.40;;;31.70;;
34204;SDS011;20471;49.680;20.074;2024-03-08T04:06:25;50.20;;;31.10;;
34204;SDS011;20471;49.680;20.074;2024-03-08T04:08:53;49.80;;;31.80;;
34204;SDS011;20471;49.680;20.074;2024-03-08T04:11:21;49.80;;;31.80;;
34204;SDS011;20471;49.680;20.074;2024-03-08T04:13:49;44.80;;;29.60;;
34204;SDS011;20471;49.680;20.074;2024-03-08T04:16:16;44.00;;;29.70;;
34204;SDS011;20471;49.680;20.074;2024-03-08T04:18:45;43.60;;;29.30;;
34204;SDS011;20471;49.680;20.074;2024-03-08T04:21:13;45.10;;;29.00;;
34204;SDS011;20471;49.680;20.074;2024-03-08T04:23:41;41.30;;;27.70;;
34204;SDS011;20471;49.680;20.074;2024-03-08T04:26:11;42.80;;;27.10;;
34204;SDS011;20471;49.680;20.074;2024-03-08T04:28:39;49.60;;;29.10;;
34204;SDS011;20471;49.680;20.074;2024-03-08T04:31:07;63.00;;;34.60;;
34204;SDS011;20471;49.680;20.074;2024-03-08T04:33:35;46.50;;;28.70;;
34204;SDS011;20471;49.680;20.074;2024-03-08T04:36:03;39.90;;;25.60;;
34204;SDS011;20471;49.680;20.074;2024-03-08T04:38:31;41.70;;;27.20;;
34204;SDS011;20471;49.680;20.074;2024-03-08T04:40:59;55.50;;;33.40;;
34204;SDS011;20471;49.680;20.074;2024-03-08T04:43:28;51.60;;;30.80;;
34204;SDS011;20471;49.680;20.074;2024-03-08T04:45:56;54.70;;;30.00;;
34204;SDS011;20471;49.680;20.074;2024-03-08T04:48:24;49.60;;;28.10;;
34204;SDS011;20471;49.680;20.074;2024-03-08T04:50:53;46.70;;;28.10;;
34204;SDS011;20471;49.680;20.074;2024-03-08T04:53:21;52.10;;;28.50;;
34204;SDS011;20471;49.680;20.074;2024-03-08T04:55:49;51.00;;;29.00;;
34204;SDS011;20471;49.680;20.074;2024-03-08T04:58:17;47.50;;;26.60;;
34204;SDS011;20471;49.680;20.074;2024-03-08T05:00:44;50.40;;;28.70;;
34204;SDS011;20471;49.680;20.074;2024-03-08T05:03:12;50.50;;;28.40;;
34204;SDS011;20471;49.680;20.074;2024-03-08T05:05:40;46.70;;;27.60;;
34204;SDS011;20471;49.680;20.074;2024-03-08T05:08:07;39.20;;;24.60;;
34204;SDS011;20471;49.680;20.074;2024-03-08T05:10:35;37.10;;;24.50;;
34204;SDS011;20471;49.680;20.074;2024-03-08T05:13:03;39.30;;;25.10;;
34204;SDS011;20471;49.680;20.074;2024-03-08T05:15:31;37.80;;;24.50;;
34204;SDS011;20471;49.680;20.074;2024-03-08T05:18:01;38.90;;;26.20;;
34204;SDS011;20471;49.680;20.074;2024-03-08T05:20:28;38.90;;;24.80;;
34204;SDS011;20471;49.680;20.074;2024-03-08T05:22:57;36.70;;;24.70;;
34204;SDS011;20471;49.680;20.074;2024-03-08T05:25:26;36.40;;;24.90;;
34204;SDS011;20471;49.680;20.074;2024-03-08T05:27:54;34.10;;;22.70;;
34204;SDS011;20471;49.680;20.074;2024-03-08T05:30:21;35.60;;;24.00;;
34204;SDS011;20471;49.680;20.074;2024-03-08T05:32:49;38.80;;;25.70;;
34204;SDS011;20471;49.680;20.074;2024-03-08T05:35:17;39.40;;;24.60;;
34204;SDS011;20471;49.680;20.074;2024-03-08T05:37:44;35.90;;;23.00;;
34204;SDS011;20471;49.680;20.074;2024-03-08T05:40:12;38.70;;;25.60;;
34204;SDS011;20471;49.680;20.074;2024-03-08T05:42:41;40.60;;;26.80;;
34204;SDS011;20471;49.680;20.074;2024-03-08T05:45:09;44.30;;;27.40;;
34204;SDS011;20471;49.680;20.074;2024-03-08T05:47:38;42.30;;;27.20;;
34204;SDS011;20471;49.680;20.074;2024-03-08T05:50:06;43.20;;;28.50;;
34204;SDS011;20471;49.680;20.074;2024-03-08T05:52:37;43.10;;;28.10;;
34204;SDS011;20471;49.680;20.074;2024-03-08T05:55:05;47.50;;;28.90;;
34204;SDS011;20471;49.680;20.074;2024-03-08T05:57:34;45.50;;;29.00;;
34204;SDS011;20471;49.680;20.074;2024-03-08T06:00:04;45.00;;;27.80;;
34204;SDS011;20471;49.680;20.074;2024-03-08T06:02:32;41.30;;;27.30;;
34204;SDS011;20471;49.680;20.074;2024-03-08T06:05:00;41.40;;;26.80;;
34204;SDS011;20471;49.680;20.074;2024-03-08T06:07:28;38.40;;;26.30;;
34204;SDS011;20471;49.680;20.074;2024-03-08T06:09:56;39.60;;;26.40;;
34204;SDS011;20471;49.680;20.074;2024-03-08T06:12:24;40.70;;;27.10;;
34204;SDS011;20471;49.680;20.074;2024-03-08T06:14:55;40.70;;;27.30;;
34204;SDS011;20471;49.680;20.074;2024-03-08T06:17:22;38.70;;;26.40;;
34204;SDS011;20471;49.680;20.074;2024-03-08T06:19:52;38.70;;;26.30;;
34204;SDS011;20471;49.680;20.074;2024-03-08T06:22:20;44.00;;;26.40;;
34204;SDS011;20471;49.680;20.074;2024-03-08T06:24:48;40.60;;;25.60;;
34204;SDS011;20471;49.680;20.074;2024-03-08T06:27:16;43.30;;;26.30;;
34204;SDS011;20471;49.680;20.074;2024-03-08T06:29:44;40.30;;;24.00;;
34204;SDS011;20471;49.680;20.074;2024-03-08T06:32:12;39.50;;;25.00;;
34204;SDS011;20471;49.680;20.074;2024-03-08T06:34:41;39.70;;;25.30;;
34204;SDS011;20471;49.680;20.074;2024-03-08T06:37:09;39.50;;;25.90;;
34204;SDS011;20471;49.680;20.074;2024-03-08T06:39:37;36.10;;;24.20;;
34204;SDS011;20471;49.680;20.074;2024-03-08T06:42:05;41.90;;;26.40;;
34204;SDS011;20471;49.680;20.074;2024-03-08T06:44:33;35.50;;;23.40;;
34204;SDS011;20471;49.680;20.074;2024-03-08T06:47:01;38.40;;;24.80;;
34204;SDS011;20471;49.680;20.074;2024-03-08T06:49:28;39.60;;;25.70;;
34204;SDS011;20471;49.680;20.074;2024-03-08T06:51:57;34.70;;;23.40;;
34204;SDS011;20471;49.680;20.074;2024-03-08T06:54:25;37.60;;;25.30;;
34204;SDS011;20471;49.680;20.074;2024-03-08T06:56:53;37.70;;;25.10;;
34204;SDS011;20471;49.680;20.074;2024-03-08T06:59:21;39.30;;;24.50;;
34204;SDS011;20471;49.680;20.074;2024-03-08T07:01:48;37.20;;;25.10;;
34204;SDS011;20471;49.680;20.074;2024-03-08T07:04:16;34.90;;;24.30;;
34204;SDS011;20471;49.680;20.074;2024-03-08T07:06:46;39.40;;;25.70;;
34204;SDS011;20471;49.680;20.074;2024-03-08T07:09:14;41.50;;;27.50;;
34204;SDS011;20471;49.680;20.074;2024-03-08T07:11:43;42.10;;;25.60;;
34204;SDS011;20471;49.680;20.074;2024-03-08T07:14:10;37.10;;;23.10;;
34204;SDS011;20471;49.680;20.074;2024-03-08T07:16:38;37.00;;;24.50;;
34204;SDS011;20471;49.680;20.074;2024-03-08T07:19:07;37.10;;;24.50;;
34204;SDS011;20471;49.680;20.074;2024-03-08T07:21:35;39.20;;;25.90;;
34204;SDS011;20471;49.680;20.074;2024-03-08T07:24:03;33.90;;;23.00;;
34204;SDS011;20471;49.680;20.074;2024-03-08T07:26:44;36.70;;;23.70;;
34204;SDS011;20471;49.680;20.074;2024-03-08T07:29:15;33.10;;;22.30;;
34204;SDS011;20471;49.680;20.074;2024-03-08T07:31:43;35.60;;;22.70;;
34204;SDS011;20471;49.680;20.074;2024-03-08T07:34:17;34.50;;;21.90;;
34204;SDS011;20471;49.680;20.074;2024-03-08T07:36:45;34.70;;;21.70;;
34204;SDS011;20471;49.680;20.074;2024-03-08T07:39:12;34.40;;;21.70;;
34204;SDS011;20471;49.680;20.074;2024-03-08T07:41:41;35.50;;;22.80;;
34204;SDS011;20471;49.680;20.074;2024-03-08T07:44:08;29.40;;;20.40;;
34204;SDS011;20471;49.680;20.074;2024-03-08T07:46:36;35.10;;;21.70;;
34204;SDS011;20471;49.680;20.074;2024-03-08T07:49:04;36.90;;;22.90;;
34204;SDS011;20471;49.680;20.074;2024-03-08T07:51:32;37.90;;;22.10;;
34204;SDS011;20471;49.680;20.074;2024-03-08T07:54:01;31.30;;;20.50;;
34204;SDS011;20471;49.680;20.074;2024-03-08T07:56:30;30.20;;;20.70;;
34204;SDS011;20471;49.680;20.074;2024-03-08T07:58:58;30.70;;;20.60;;
34204;SDS011;20471;49.680;20.074;2024-03-08T08:01:26;34.30;;;21.80;;
34204;SDS011;20471;49.680;20.074;2024-03-08T08:03:54;34.50;;;22.10;;
34204;SDS011;20471;49.680;20.074;2024-03-08T08:06:22;32.70;;;21.60;;
34204;SDS011;20471;49.680;20.074;2024-03-08T08:08:51;32.00;;;21.00;;
34204;SDS011;20471;49.680;20.074;2024-03-08T08:11:19;35.20;;;23.40;;
34204;SDS011;20471;49.680;20.074;2024-03-08T08:13:47;37.30;;;22.70;;
34204;SDS011;20471;49.680;20.074;2024-03-08T08:16:14;32.20;;;21.60;;
34204;SDS011;20471;49.680;20.074;2024-03-08T08:18:42;36.00;;;22.70;;
34204;SDS011;20471;49.680;20.074;2024-03-08T08:21:12;34.10;;;20.70;;
34204;SDS011;20471;49.680;20.074;2024-03-08T08:23:40;32.60;;;21.40;;
34204;SDS011;20471;49.680;20.074;2024-03-08T08:26:07;35.90;;;22.30;;
34204;SDS011;20471;49.680;20.074;2024-03-08T08:28:36;33.90;;;22.80;;
34204;SDS011;20471;49.680;20.074;2024-03-08T08:31:04;36.30;;;21.90;;
34204;SDS011;20471;49.680;20.074;2024-03-08T08:33:32;35.20;;;21.90;;
34204;SDS011;20471;49.680;20.074;2024-03-08T08:36:01;35.40;;;22.40;;
34204;SDS011;20471;49.680;20.074;2024-03-08T08:38:29;36.10;;;21.60;;
34204;SDS011;20471;49.680;20.074;2024-03-08T08:40:58;34.70;;;22.10;;
34204;SDS011;20471;49.680;20.074;2024-03-08T08:43:26;34.90;;;21.70;;
34204;SDS011;20471;49.680;20.074;2024-03-08T08:45:53;33.80;;;22.30;;
34204;SDS011;20471;49.680;20.074;2024-03-08T08:48:21;34.10;;;21.60;;
34204;SDS011;20471;49.680;20.074;2024-03-08T08:50:51;31.90;;;21.20;;
34204;SDS011;20471;49.680;20.074;2024-03-08T08:53:19;32.80;;;21.60;;
34204;SDS011;20471;49.680;20.074;2024-03-08T08:55:46;35.10;;;23.10;;
34204;SDS011;20471;49.680;20.074;2024-03-08T08:58:14;37.70;;;24.00;;
34204;SDS011;20471;49.680;20.074;2024-03-08T09:00:42;29.50;;;19.70;;
34204;SDS011;20471;49.680;20.074;2024-03-08T09:03:10;29.60;;;19.20;;
34204;SDS011;20471;49.680;20.074;2024-03-08T09:05:38;30.70;;;20.10;;
34204;SDS011;20471;49.680;20.074;2024-03-08T09:08:09;32.00;;;21.20;;
34204;SDS011;20471;49.680;20.074;2024-03-08T09:10:36;31.40;;;22.10;;
34204;SDS011;20471;49.680;20.074;2024-03-08T09:13:05;39.80;;;23.60;;
34204;SDS011;20471;49.680;20.074;2024-03-08T09:15:33;35.60;;;22.60;;
34204;SDS011;20471;49.680;20.074;2024-03-08T09:18:00;32.90;;;21.90;;
34204;SDS011;20471;49.680;20.074;2024-03-08T09:20:28;33.40;;;22.10;;
34204;SDS011;20471;49.680;20.074;2024-03-08T09:22:58;32.30;;;21.10;;
34204;SDS011;20471;49.680;20.074;2024-03-08T09:25:26;34.10;;;21.20;;
34204;SDS011;20471;49.680;20.074;2024-03-08T09:27:54;35.90;;;22.60;;
34204;SDS011;20471;49.680;20.074;2024-03-08T09:30:22;34.50;;;21.80;;
34204;SDS011;20471;49.680;20.074;2024-03-08T09:32:50;31.70;;;21.70;;
34204;SDS011;20471;49.680;20.074;2024-03-08T09:35:18;31.10;;;21.00;;
34204;SDS011;20471;49.680;20.074;2024-03-08T09:37:46;32.60;;;22.60;;
34204;SDS011;20471;49.680;20.074;2024-03-08T09:40:17;33.70;;;21.20;;
34204;SDS011;20471;49.680;20.074;2024-03-08T09:42:46;34.60;;;22.10;;
34204;SDS011;20471;49.680;20.074;2024-03-08T09:45:15;34.50;;;22.60;;
34204;SDS011;20471;49.680;20.074;2024-03-08T09:47:44;32.40;;;22.10;;
34204;SDS011;20471;49.680;20.074;2024-03-08T09:50:12;31.60;;;20.80;;
34204;SDS011;20471;49.680;20.074;2024-03-08T09:52:42;33.80;;;23.00;;
34204;SDS011;20471;49.680;20.074;2024-03-08T09:55:10;34.80;;;22.40;;
34204;SDS011;20471;49.680;20.074;2024-03-08T09:57:42;38.90;;;23.90;;
34204;SDS011;20471;49.680;20.074;2024-03-08T10:00:32;33.40;;;22.30;;
34204;SDS011;20471;49.680;20.074;2024-03-08T10:03:00;37.10;;;23.60;;
34204;SDS011;20471;49.680;20.074;2024-03-08T10:05:30;37.80;;;23.70;;
34204;SDS011;20471;49.680;20.074;2024-03-08T10:07:58;35.30;;;23.00;;
34204;SDS011;20471;49.680;20.074;2024-03-08T10:10:26;35.30;;;22.90;;
34204;SDS011;20471;49.680;20.074;2024-03-08T10:12:55;38.50;;;24.60;;
34204;SDS011;20471;49.680;20.074;2024-03-08T10:15:23;34.20;;;22.00;;
34204;SDS011;20471;49.680;20.074;2024-03-08T10:17:50;34.70;;;21.80;;
34204;SDS011;20471;49.680;20.074;2024-03-08T10:20:19;34.10;;;22.70;;
34204;SDS011;20471;49.680;20.074;2024-03-08T10:22:47;33.90;;;21.80;;
34204;SDS011;20471;49.680;20.074;2024-03-08T10:25:15;35.50;;;23.50;;
34204;SDS011;20471;49.680;20.074;2024-03-08T10:27:43;40.20;;;22.90;;
34204;SDS011;20471;49.680;20.074;2024-03-08T10:30:15;34.90;;;22.70;;
34204;SDS011;20471;49.680;20.074;2024-03-08T10:32:46;31.30;;;21.30;;
34204;SDS011;20471;49.680;20.074;2024-03-08T10:35:14;35.00;;;23.20;;
34204;SDS011;20471;49.680;20.074;2024-03-08T10:40:17;41.10;;;25.60;;
34204;SDS011;20471;49.680;20.074;2024-03-08T10:42:56;35.90;;;22.30;;
34204;SDS011;20471;49.680;20.074;2024-03-08T10:47:55;32.40;;;22.40;;
34204;SDS011;20471;49.680;20.074;2024-03-08T10:50:44;26.50;;;16.60;;
34204;SDS011;20471;49.680;20.074;2024-03-08T10:53:15;36.80;;;24.20;;
34204;SDS011;20471;49.680;20.074;2024-03-08T10:55:43;35.70;;;23.90;;
34204;SDS011;20471;49.680;20.074;2024-03-08T10:58:12;36.60;;;24.50;;
34204;SDS011;20471;49.680;20.074;2024-03-08T11:00:40;34.60;;;23.30;;
34204;SDS011;20471;49.680;20.074;2024-03-08T11:03:09;42.30;;;27.30;;
34204;SDS011;20471;49.680;20.074;2024-03-08T11:06:07;39.30;;;26.40;;
34204;SDS011;20471;49.680;20.074;2024-03-08T11:08:36;41.70;;;24.90;;
34204;SDS011;20471;49.680;20.074;2024-03-08T11:11:05;36.40;;;23.60;;
34204;SDS011;20471;49.680;20.074;2024-03-08T11:13:36;35.70;;;24.50;;
34204;SDS011;20471;49.680;20.074;2024-03-08T11:16:07;36.80;;;24.70;;
34204;SDS011;20471;49.680;20.074;2024-03-08T11:18:38;37.60;;;23.90;;
34204;SDS011;20471;49.680;20.074;2024-03-08T11:21:09;38.30;;;23.90;;
34204;SDS011;20471;49.680;20.074;2024-03-08T11:23:38;34.40;;;21.70;;
34204;SDS011;20471;49.680;20.074;2024-03-08T11:26:20;34.80;;;22.50;;
34204;SDS011;20471;49.680;20.074;2024-03-08T11:28:49;33.20;;;23.80;;
34204;SDS011;20471;49.680;20.074;2024-03-08T11:31:22;35.50;;;23.10;;
34204;SDS011;20471;49.680;20.074;2024-03-08T11:33:51;36.70;;;24.90;;
34204;SDS011;20471;49.680;20.074;2024-03-08T11:36:20;35.70;;;22.70;;
34204;SDS011;20471;49.680;20.074;2024-03-08T11:38:52;34.80;;;22.70;;
34204;SDS011;20471;49.680;20.074;2024-03-08T11:41:22;34.20;;;22.70;;
34204;SDS011;20471;49.680;20.074;2024-03-08T11:44:01;35.80;;;24.00;;
34204;SDS011;20471;49.680;20.074;2024-03-08T11:46:32;34.60;;;23.20;;
34204;SDS011;20471;49.680;20.074;2024-03-08T11:49:00;36.90;;;24.10;;
34204;SDS011;20471;49.680;20.074;2024-03-08T11:51:29;35.40;;;23.00;;
34204;SDS011;20471;49.680;20.074;2024-03-08T11:53:57;33.50;;;22.00;;
34204;SDS011;20471;49.680;20.074;2024-03-08T11:56:25;34.00;;;22.40;;
34204;SDS011;20471;49.680;20.074;2024-03-08T11:58:54;34.00;;;21.30;;
34204;SDS011;20471;49.680;20.074;2024-03-08T12:01:23;36.00;;;23.80;;
34204;SDS011;20471;49.680;20.074;2024-03-08T12:03:52;35.60;;;22.90;;
34204;SDS011;20471;49.680;20.074;2024-03-08T12:06:21;34.10;;;23.10;;
34204;SDS011;20471;49.680;20.074;2024-03-08T12:08:49;34.70;;;23.00;;
34204;SDS011;20471;49.680;20.074;2024-03-08T12:11:17;32.40;;;22.90;;
34204;SDS011;20471;49.680;20.074;2024-03-08T12:13:49;34.00;;;23.50;;
34204;SDS011;20471;49.680;20.074;2024-03-08T12:16:17;38.80;;;23.50;;
34204;SDS011;20471;49.680;20.074;2024-03-08T12:18:45;29.90;;;21.60;;
34204;SDS011;20471;49.680;20.074;2024-03-08T12:21:14;34.30;;;21.00;;
34204;SDS011;20471;49.680;20.074;2024-03-08T12:23:46;30.50;;;20.90;;
34204;SDS011;20471;49.680;20.074;2024-03-08T12:26:17;34.80;;;24.70;;
34204;SDS011;20471;49.680;20.074;2024-03-08T12:28:50;36.20;;;23.70;;
34204;SDS011;20471;49.680;20.074;2024-03-08T12:31:18;33.80;;;22.70;;
34204;SDS011;20471;49.680;20.074;2024-03-08T12:33:49;36.30;;;23.70;;
34204;SDS011;20471;49.680;20.074;2024-03-08T12:36:19;36.40;;;22.30;;
34204;SDS011;20471;49.680;20.074;2024-03-08T12:38:48;36.00;;;24.30;;
34204;SDS011;20471;49.680;20.074;2024-03-08T12:41:16;38.10;;;24.60;;
34204;SDS011;20471;49.680;20.074;2024-03-08T12:43:45;35.00;;;22.50;;
34204;SDS011;20471;49.680;20.074;2024-03-08T12:46:15;35.70;;;23.00;;
34204;SDS011;20471;49.680;20.074;2024-03-08T12:48:47;34.20;;;22.90;;
34204;SDS011;20471;49.680;20.074;2024-03-08T12:51:16;32.30;;;20.50;;
34204;SDS011;20471;49.680;20.074;2024-03-08T12:53:44;32.00;;;21.80;;
34204;SDS011;20471;49.680;20.074;2024-03-08T12:56:14;31.80;;;22.30;;
34204;SDS011;20471;49.680;20.074;2024-03-08T12:58:55;34.20;;;23.40;;
34204;SDS011;20471;49.680;20.074;2024-03-08T13:01:24;37.60;;;23.10;;
34204;SDS011;20471;49.680;20.074;2024-03-08T13:03:52;33.60;;;23.30;;
34204;SDS011;20471;49.680;20.074;2024-03-08T13:06:22;38.40;;;25.60;;
34204;SDS011;20471;49.680;20.074;2024-03-08T13:08:51;32.50;;;23.40;;
34204;SDS011;20471;49.680;20.074;2024-03-08T13:11:19;38.50;;;25.00;;
34204;SDS011;20471;49.680;20.074;2024-03-08T13:13:47;40.50;;;26.10;;
34204;SDS011;20471;49.680;20.074;2024-03-08T13:16:15;39.70;;;26.60;;
34204;SDS011;20471;49.680;20.074;2024-03-08T13:18:45;38.80;;;25.20;;
34204;SDS011;20471;49.680;20.074;2024-03-08T13:21:15;41.60;;;24.90;;
34204;SDS011;20471;49.680;20.074;2024-03-08T13:23:46;42.70;;;24.50;;
34204;SDS011;20471;49.680;20.074;2024-03-08T13:26:15;35.80;;;24.40;;
34204;SDS011;20471;49.680;20.074;2024-03-08T13:28:44;37.00;;;24.20;;
34204;SDS011;20471;49.680;20.074;2024-03-08T13:31:14;37.90;;;25.50;;
34204;SDS011;20471;49.680;20.074;2024-03-08T13:33:42;39.60;;;24.60;;
34204;SDS011;20471;49.680;20.074;2024-03-08T13:36:13;40.50;;;26.00;;
34204;SDS011;20471;49.680;20.074;2024-03-08T13:38:45;38.60;;;24.40;;
34204;SDS011;20471;49.680;20.074;2024-03-08T13:41:16;41.20;;;25.40;;
34204;SDS011;20471;49.680;20.074;2024-03-08T13:43:47;39.30;;;25.30;;
34204;SDS011;20471;49.680;20.074;2024-03-08T13:46:16;37.70;;;23.70;;
34204;SDS011;20471;49.680;20.074;2024-03-08T13:48:44;40.00;;;25.80;;
34204;SDS011;20471;49.680;20.074;2024-03-08T13:51:12;44.40;;;26.10;;
34204;SDS011;20471;49.680;20.074;2024-03-08T13:53:41;41.20;;;25.80;;
34204;SDS011;20471;49.680;20.074;2024-03-08T13:56:10;41.50;;;25.50;;
34204;SDS011;20471;49.680;20.074;2024-03-08T13:58:38;39.60;;;24.90;;
34204;SDS011;20471;49.680;20.074;2024-03-08T14:01:06;37.40;;;25.80;;
34204;SDS011;20471;49.680;20.074;2024-03-08T14:03:37;37.00;;;23.70;;
34204;SDS011;20471;49.680;20.074;2024-03-08T14:06:08;38.90;;;24.90;;
34204;SDS011;20471;49.680;20.074;2024-03-08T14:08:37;36.60;;;24.40;;
34204;SDS011;20471;49.680;20.074;2024-03-08T14:11:05;41.30;;;26.10;;
34204;SDS011;20471;49.680;20.074;2024-03-08T14:16:12;32.50;;;22.90;;
34204;SDS011;20471;49.680;20.074;2024-03-08T14:18:40;37.50;;;24.10;;
34204;SDS011;20471;49.680;20.074;2024-03-08T14:21:08;38.50;;;24.40;;
34204;SDS011;20471;49.680;20.074;2024-03-08T14:23:36;42.10;;;25.00;;
34204;SDS011;20471;49.680;20.074;2024-03-08T14:26:04;36.50;;;24.50;;
34204;SDS011;20471;49.680;20.074;2024-03-08T14:28:33;37.10;;;24.30;;
34204;SDS011;20471;49.680;20.074;2024-03-08T14:31:01;39.30;;;23.60;;
34204;SDS011;20471;49.680;20.074;2024-03-08T14:33:29;42.00;;;25.50;;
34204;SDS011;20471;49.680;20.074;2024-03-08T14:35:57;43.70;;;26.60;;
34204;SDS011;20471;49.680;20.074;2024-03-08T14:38:25;51.50;;;29.50;;
34204;SDS011;20471;49.680;20.074;2024-03-08T14:40:53;41.80;;;27.00;;
34204;SDS011;20471;49.680;20.074;2024-03-08T14:43:21;40.80;;;27.90;;
34204;SDS011;20471;49.680;20.074;2024-03-08T14:45:50;37.90;;;25.30;;
34204;SDS011;20471;49.680;20.074;2024-03-08T14:48:18;37.20;;;24.70;;
34204;SDS011;20471;49.680;20.074;2024-03-08T14:50:46;42.30;;;26.20;;
34204;SDS011;20471;49.680;20.074;2024-03-08T14:53:14;38.30;;;25.70;;
34204;SDS011;20471;49.680;20.074;2024-03-08T14:55:42;39.40;;;25.40;;
34204;SDS011;20471;49.680;20.074;2024-03-08T14:58:13;40.10;;;26.30;;
34204;SDS011;20471;49.680;20.074;2024-03-08T15:00:41;39.30;;;25.20;;
34204;SDS011;20471;49.680;20.074;2024-03-08T15:03:09;57.30;;;30.60;;
34204;SDS011;20471;49.680;20.074;2024-03-08T15:05:39;53.00;;;32.20;;
34204;SDS011;20471;49.680;20.074;2024-03-08T15:08:13;49.60;;;31.50;;
34204;SDS011;20471;49.680;20.074;2024-03-08T15:13:14;40.40;;;25.90;;
34204;SDS011;20471;49.680;20.074;2024-03-08T15:15:47;38.20;;;25.70;;
34204;SDS011;20471;49.680;20.074;2024-03-08T15:18:24;40.00;;;24.10;;
34204;SDS011;20471;49.680;20.074;2024-03-08T15:20:57;38.70;;;24.40;;
34204;SDS011;20471;49.680;20.074;2024-03-08T15:23:24;43.10;;;27.40;;
34204;SDS011;20471;49.680;20.074;2024-03-08T15:25:52;39.10;;;26.50;;
34204;SDS011;20471;49.680;20.074;2024-03-08T15:28:20;37.70;;;24.70;;
34204;SDS011;20471;49.680;20.074;2024-03-08T15:30:53;39.70;;;25.00;;
34204;SDS011;20471;49.680;20.074;2024-03-08T15:33:22;38.10;;;25.20;;
34204;SDS011;20471;49.680;20.074;2024-03-08T15:35:53;37.60;;;23.80;;